createdAt,value
2019-05-22T00:00:11.755Z,0.00
2019-05-22T00:01:11.868Z,0.00
2019-05-22T00:02:11.999Z,0.00
2019-05-22T00:03:12.130Z,0.00
2019-05-22T00:04:12.350Z,0.00
2019-05-22T00:05:13.429Z,0.00
2019-05-22T00:06:12.650Z,0.00
2019-05-22T00:07:12.883Z,0.00
2019-05-22T00:08:13.028Z,0.00
2019-05-22T00:09:13.210Z,0.00
2019-05-22T00:10:13.352Z,0.00
2019-05-22T00:11:13.587Z,0.00
2019-05-22T00:12:13.705Z,0.00
2019-05-22T00:13:14.023Z,0.00
2019-05-22T00:14:14.211Z,0.00
2019-05-22T00:15:14.339Z,0.00
2019-05-22T00:16:14.464Z,0.00
2019-05-22T00:17:14.704Z,0.00
2019-05-22T00:18:14.854Z,0.00
2019-05-22T00:19:15.418Z,0.00
2019-05-22T00:20:15.931Z,0.00
2019-05-22T00:21:15.288Z,0.00
2019-05-22T00:22:15.414Z,0.00
2019-05-22T00:23:15.651Z,0.00
2019-05-22T00:24:15.821Z,0.00
2019-05-22T00:25:15.991Z,0.00
2019-05-22T00:26:16.916Z,0.00
2019-05-22T00:27:16.269Z,0.00
2019-05-22T00:28:16.425Z,0.00
2019-05-22T00:29:16.931Z,0.00
2019-05-22T00:30:16.728Z,0.00
2019-05-22T00:31:16.918Z,0.00
2019-05-22T00:32:17.093Z,0.00
2019-05-22T00:33:17.272Z,0.00
2019-05-22T00:34:17.411Z,0.00
2019-05-22T00:35:17.566Z,0.00
2019-05-22T00:36:17.751Z,0.00
2019-05-22T00:37:18.407Z,0.00
2019-05-22T00:38:18.911Z,0.00
2019-05-22T00:39:18.166Z,0.00
2019-05-22T00:40:18.366Z,0.00
2019-05-22T00:41:18.574Z,0.00
2019-05-22T00:42:18.663Z,0.00
2019-05-22T00:43:18.820Z,0.00
2019-05-22T00:44:18.958Z,0.00
2019-05-22T00:45:19.176Z,0.00
2019-05-22T00:46:19.268Z,0.00
2019-05-22T00:47:19.437Z,0.00
2019-05-22T00:48:19.652Z,0.00
2019-05-22T00:49:19.824Z,0.00
2019-05-22T00:50:20.434Z,0.00
2019-05-22T00:51:20.225Z,0.00
2019-05-22T00:52:20.922Z,0.00
2019-05-22T00:53:20.557Z,0.00
2019-05-22T00:54:20.706Z,0.00
2019-05-22T00:55:20.877Z,0.00
2019-05-22T00:56:21.051Z,0.00
2019-05-22T00:57:21.915Z,0.00
2019-05-22T00:58:21.419Z,0.00
2019-05-22T00:59:21.634Z,0.00
2019-05-22T01:00:21.760Z,0.00
2019-05-22T01:01:21.913Z,0.00
2019-05-22T01:02:22.078Z,0.00
2019-05-22T01:03:22.235Z,0.00
2019-05-22T01:04:22.388Z,0.00
2019-05-22T01:05:22.542Z,0.00
2019-05-22T01:06:22.690Z,0.00
2019-05-22T01:07:22.833Z,0.00
2019-05-22T01:08:22.981Z,0.00
2019-05-22T01:09:23.121Z,0.00
2019-05-22T01:10:23.266Z,0.00
2019-05-22T01:11:23.445Z,0.00
2019-05-22T01:12:23.626Z,0.00
2019-05-22T01:13:23.804Z,0.00
2019-05-22T01:14:23.978Z,0.00
2019-05-22T01:15:24.130Z,0.00
2019-05-22T01:16:24.274Z,0.00
2019-05-22T01:17:24.955Z,0.00
2019-05-22T01:18:24.576Z,0.00
2019-05-22T01:19:24.717Z,0.00
2019-05-22T01:20:24.839Z,0.00
2019-05-22T01:21:25.945Z,0.00
2019-05-22T01:22:25.211Z,0.00
2019-05-22T01:23:25.370Z,0.00
2019-05-22T01:24:25.484Z,0.00
2019-05-22T01:25:26.446Z,0.00
2019-05-22T01:26:25.936Z,0.00
2019-05-22T01:27:26.081Z,0.00
2019-05-22T01:28:26.239Z,0.00
2019-05-22T01:29:26.459Z,0.00
2019-05-22T01:30:26.607Z,0.00
2019-05-22T01:31:26.761Z,0.00
2019-05-22T01:32:26.929Z,0.00
2019-05-22T01:33:27.072Z,0.00
2019-05-22T01:34:27.263Z,0.00
2019-05-22T01:35:27.421Z,0.00
2019-05-22T01:36:27.567Z,0.00
2019-05-22T01:37:28.422Z,0.00
2019-05-22T01:38:28.428Z,0.00
2019-05-22T01:39:28.039Z,0.00
2019-05-22T01:40:28.161Z,0.00
2019-05-22T01:41:28.388Z,0.00
2019-05-22T01:42:28.634Z,0.00
2019-05-22T01:43:28.862Z,0.00
2019-05-22T01:44:29.026Z,0.00
2019-05-22T01:45:29.165Z,0.00
2019-05-22T01:46:29.285Z,0.00
2019-05-22T01:47:29.417Z,0.00
2019-05-22T01:48:29.598Z,0.00
2019-05-22T01:49:29.706Z,0.00
2019-05-22T01:50:29.830Z,0.00
2019-05-22T01:51:29.985Z,0.00
2019-05-22T01:52:30.221Z,0.00
2019-05-22T01:53:30.405Z,0.00
2019-05-22T01:54:30.604Z,0.00
2019-05-22T01:55:31.437Z,0.00
2019-05-22T01:56:30.930Z,0.00
2019-05-22T01:57:31.073Z,0.00
2019-05-22T01:58:31.249Z,0.00
2019-05-22T01:59:31.430Z,0.00
2019-05-22T02:00:31.575Z,0.00
2019-05-22T02:01:31.802Z,0.00
2019-05-22T02:02:32.924Z,0.00
2019-05-22T02:03:32.964Z,0.00
2019-05-22T02:04:32.298Z,0.00
2019-05-22T02:05:32.455Z,0.00
2019-05-22T02:06:32.601Z,0.00
2019-05-22T02:07:33.439Z,0.00
2019-05-22T02:08:32.938Z,0.00
2019-05-22T02:09:33.067Z,0.00
2019-05-22T02:10:33.221Z,0.00
2019-05-22T02:11:33.356Z,0.00
2019-05-22T02:12:33.526Z,0.00
2019-05-22T02:13:33.684Z,0.00
2019-05-22T02:14:33.816Z,0.00
2019-05-22T02:15:33.977Z,0.00
2019-05-22T02:16:34.118Z,0.00
2019-05-22T02:17:34.938Z,0.00
2019-05-22T02:18:35.436Z,0.00
2019-05-22T02:19:34.694Z,0.00
2019-05-22T02:20:34.838Z,0.00
2019-05-22T02:21:34.967Z,0.00
2019-05-22T02:22:35.073Z,0.00
2019-05-22T02:23:35.218Z,0.00
2019-05-22T02:24:35.449Z,0.00
2019-05-22T02:25:35.571Z,0.00
2019-05-22T02:26:35.738Z,0.00
2019-05-22T02:27:35.858Z,0.00
2019-05-22T02:28:36.000Z,0.00
2019-05-22T02:29:36.125Z,0.00
2019-05-22T02:30:36.936Z,0.00
2019-05-22T02:31:36.458Z,0.00
2019-05-22T02:32:36.608Z,0.00
2019-05-22T02:33:36.725Z,0.00
2019-05-22T02:34:36.859Z,0.00
2019-05-22T02:35:37.031Z,0.00
2019-05-22T02:36:37.216Z,0.00
2019-05-22T02:37:37.353Z,0.00
2019-05-22T02:38:37.493Z,0.00
2019-05-22T02:39:37.612Z,0.00
2019-05-22T02:40:37.765Z,0.00
2019-05-22T02:41:37.931Z,0.00
2019-05-22T02:42:38.084Z,0.00
2019-05-22T02:43:38.211Z,0.00
2019-05-22T02:44:38.954Z,0.00
2019-05-22T02:45:38.600Z,0.00
2019-05-22T02:46:38.769Z,0.00
2019-05-22T02:47:38.905Z,0.00
2019-05-22T02:48:42.271Z,0.00
2019-05-22T02:49:40.937Z,0.00
2019-05-22T02:50:39.417Z,0.00
2019-05-22T02:51:39.542Z,0.00
2019-05-22T02:52:39.790Z,0.00
2019-05-22T02:53:39.908Z,0.00
2019-05-22T02:54:40.072Z,0.00
2019-05-22T02:55:40.252Z,0.00
2019-05-22T02:56:40.416Z,0.00
2019-05-22T02:57:41.449Z,0.00
2019-05-22T02:58:40.683Z,0.00
2019-05-22T02:59:40.822Z,0.00
2019-05-22T03:00:40.972Z,0.00
2019-05-22T03:01:41.128Z,0.00
2019-05-22T03:02:41.307Z,0.00
2019-05-22T03:03:41.405Z,0.00
2019-05-22T03:04:41.559Z,0.00
2019-05-22T03:05:41.699Z,0.00
2019-05-22T03:06:42.853Z,0.00
2019-05-22T03:07:42.045Z,0.00
2019-05-22T03:08:42.177Z,0.00
2019-05-22T03:09:42.327Z,0.00
2019-05-22T03:10:42.477Z,0.00
2019-05-22T03:11:43.635Z,0.00
2019-05-22T03:12:43.440Z,0.00
2019-05-22T03:13:42.930Z,0.00
2019-05-22T03:14:43.079Z,0.00
2019-05-22T03:15:43.240Z,0.00
2019-05-22T03:16:43.372Z,0.00
2019-05-22T03:17:43.559Z,0.00
2019-05-22T03:18:43.719Z,0.00
2019-05-22T03:19:44.444Z,0.00
2019-05-22T03:20:44.072Z,0.00
2019-05-22T03:21:44.217Z,0.00
2019-05-22T03:22:44.363Z,0.00
2019-05-22T03:23:44.526Z,0.00
2019-05-22T03:24:44.663Z,0.00
2019-05-22T03:25:44.849Z,0.00
2019-05-22T03:26:45.053Z,0.00
2019-05-22T03:27:45.220Z,0.00
2019-05-22T03:28:45.405Z,0.00
2019-05-22T03:29:45.558Z,0.00
2019-05-22T03:30:45.730Z,0.00
2019-05-22T03:31:45.871Z,0.00
2019-05-22T03:32:47.050Z,0.00
2019-05-22T03:33:46.160Z,0.00
2019-05-22T03:34:46.327Z,0.00
2019-05-22T03:35:46.642Z,0.00
2019-05-22T03:36:47.458Z,0.00
2019-05-22T03:37:47.471Z,0.00
2019-05-22T03:38:47.003Z,0.00
2019-05-22T03:39:47.128Z,0.00
2019-05-22T03:40:47.277Z,0.00
2019-05-22T03:41:47.414Z,0.00
2019-05-22T03:42:47.554Z,0.00
2019-05-22T03:43:47.732Z,0.00
2019-05-22T03:44:47.844Z,0.00
2019-05-22T03:45:48.957Z,0.00
2019-05-22T03:46:48.220Z,0.00
2019-05-22T03:47:48.387Z,0.00
2019-05-22T03:48:48.563Z,0.00
2019-05-22T03:49:48.705Z,0.00
2019-05-22T03:50:48.862Z,0.00
2019-05-22T03:51:49.031Z,0.00
2019-05-22T03:52:49.162Z,0.00
2019-05-22T03:53:50.949Z,0.00
2019-05-22T03:54:49.553Z,0.00
2019-05-22T03:55:49.684Z,0.00
2019-05-22T03:56:49.849Z,0.00
2019-05-22T03:57:50.002Z,0.00
2019-05-22T03:58:50.137Z,0.00
2019-05-22T03:59:50.274Z,0.00
2019-05-22T04:00:50.468Z,0.00
2019-05-22T04:01:50.698Z,0.00
2019-05-22T04:02:50.861Z,0.00
2019-05-22T04:03:51.023Z,0.00
2019-05-22T04:04:51.956Z,0.00
2019-05-22T04:05:52.346Z,0.00
2019-05-22T04:06:51.969Z,0.00
2019-05-22T04:07:51.719Z,0.00
2019-05-22T04:08:51.971Z,0.00
2019-05-22T04:09:52.017Z,0.00
2019-05-22T04:10:52.200Z,0.00
2019-05-22T04:11:52.474Z,0.00
2019-05-22T04:12:52.467Z,0.00
2019-05-22T04:13:52.627Z,0.00
2019-05-22T04:14:52.805Z,0.00
2019-05-22T04:15:53.992Z,0.00
2019-05-22T04:16:53.213Z,0.00
2019-05-22T04:17:53.343Z,0.00
2019-05-22T04:18:53.488Z,0.00
2019-05-22T04:19:53.622Z,0.00
2019-05-22T04:20:53.760Z,0.00
2019-05-22T04:21:53.901Z,0.00
2019-05-22T04:22:54.030Z,0.00
2019-05-22T04:23:54.271Z,0.00
2019-05-22T04:24:54.406Z,5.62
2019-05-22T04:25:54.568Z,5.62
2019-05-22T04:26:55.465Z,5.62
2019-05-22T04:27:54.831Z,5.62
2019-05-22T04:28:55.465Z,5.62
2019-05-22T04:29:55.197Z,5.62
2019-05-22T04:30:59.492Z,5.62
2019-05-22T04:31:55.536Z,5.62
2019-05-22T04:32:55.680Z,5.62
2019-05-22T04:33:55.821Z,5.62
2019-05-22T04:34:55.986Z,5.62
2019-05-22T04:35:56.159Z,5.62
2019-05-22T04:36:56.304Z,5.62
2019-05-22T04:37:56.479Z,5.62
2019-05-22T04:38:56.608Z,5.62
2019-05-22T04:39:56.751Z,5.62
2019-05-22T04:40:58.026Z,5.62
2019-05-22T04:41:57.967Z,5.62
2019-05-22T04:42:57.325Z,5.62
2019-05-22T04:43:57.453Z,5.62
2019-05-22T04:44:57.594Z,5.62
2019-05-22T04:45:57.727Z,5.62
2019-05-22T04:46:57.868Z,5.62
2019-05-22T04:47:58.006Z,5.62
2019-05-22T04:48:58.183Z,5.62
2019-05-22T04:50:07.127Z,5.62
2019-05-22T04:51:00.584Z,5.62
2019-05-22T04:51:59.481Z,5.62
2019-05-22T04:52:58.855Z,5.62
2019-05-22T04:53:58.991Z,5.62
2019-05-22T04:54:59.128Z,5.62
2019-05-22T04:55:59.275Z,5.62
2019-05-22T04:56:59.415Z,5.62
2019-05-22T04:57:59.608Z,5.62
2019-05-22T04:58:59.748Z,5.62
2019-05-22T04:59:59.901Z,5.62
2019-05-22T05:01:00.981Z,5.62
2019-05-22T05:02:00.238Z,5.62
2019-05-22T05:03:00.489Z,5.62
2019-05-22T05:04:01.003Z,5.62
2019-05-22T05:05:00.763Z,5.62
2019-05-22T05:06:00.937Z,5.62
2019-05-22T05:07:01.085Z,5.62
2019-05-22T05:08:01.473Z,5.62
2019-05-22T05:09:01.573Z,5.62
2019-05-22T05:10:01.653Z,5.62
2019-05-22T05:11:01.833Z,5.62
2019-05-22T05:12:01.919Z,5.62
2019-05-22T05:13:02.486Z,5.62
2019-05-22T05:14:03.230Z,5.62
2019-05-22T05:15:02.447Z,5.62
2019-05-22T05:16:02.697Z,5.62
2019-05-22T05:17:02.840Z,5.62
2019-05-22T05:18:02.991Z,5.62
2019-05-22T05:19:03.167Z,5.62
2019-05-22T05:20:03.314Z,5.62
2019-05-22T05:21:03.440Z,5.62
2019-05-22T05:22:03.570Z,5.62
2019-05-22T05:23:03.737Z,5.62
2019-05-22T05:24:03.899Z,5.62
2019-05-22T05:25:04.052Z,5.62
2019-05-22T05:26:04.183Z,5.62
2019-05-22T05:27:04.993Z,5.62
2019-05-22T05:28:04.600Z,5.62
2019-05-22T05:29:04.969Z,5.62
2019-05-22T05:30:04.977Z,5.62
2019-05-22T05:31:05.217Z,5.62
2019-05-22T05:32:05.367Z,5.62
2019-05-22T05:33:06.471Z,5.62
2019-05-22T05:34:05.702Z,11.25
2019-05-22T05:35:05.836Z,11.25
2019-05-22T05:36:05.974Z,11.25
2019-05-22T05:37:06.098Z,11.25
2019-05-22T05:38:06.220Z,11.25
2019-05-22T05:39:06.502Z,11.25
2019-05-22T05:40:06.998Z,11.25
2019-05-22T05:41:06.761Z,11.25
2019-05-22T05:42:06.904Z,11.25
2019-05-22T05:43:07.160Z,11.25
2019-05-22T05:44:07.975Z,11.25
2019-05-22T05:45:07.488Z,11.25
2019-05-22T05:46:08.481Z,11.25
2019-05-22T05:47:07.847Z,11.25
2019-05-22T05:48:07.983Z,11.25
2019-05-22T05:49:08.970Z,11.25
2019-05-22T05:50:08.319Z,16.88
2019-05-22T05:51:08.458Z,16.88
2019-05-22T05:52:08.596Z,16.88
2019-05-22T05:53:09.507Z,16.88
2019-05-22T05:54:08.860Z,16.88
2019-05-22T05:55:09.009Z,11.25
2019-05-22T05:56:09.146Z,16.88
2019-05-22T05:57:09.297Z,11.25
2019-05-22T05:58:09.443Z,16.88
2019-05-22T05:59:09.577Z,16.88
2019-05-22T06:00:09.702Z,11.25
2019-05-22T06:01:09.863Z,16.88
2019-05-22T06:02:10.980Z,16.88
2019-05-22T06:03:10.226Z,16.88
2019-05-22T06:04:10.373Z,16.88
2019-05-22T06:05:10.566Z,16.88
2019-05-22T06:06:10.719Z,16.88
2019-05-22T06:07:10.864Z,16.88
2019-05-22T06:08:11.028Z,16.88
2019-05-22T06:09:11.176Z,22.50
2019-05-22T06:10:11.985Z,22.50
2019-05-22T06:11:11.461Z,16.88
2019-05-22T06:12:11.604Z,16.88
2019-05-22T06:13:11.794Z,16.88
2019-05-22T06:14:11.953Z,16.88
2019-05-22T06:15:12.100Z,16.88
2019-05-22T06:16:12.224Z,16.88
2019-05-22T06:17:12.504Z,16.88
2019-05-22T06:18:12.539Z,16.88
2019-05-22T06:19:13.489Z,16.88
2019-05-22T06:20:12.996Z,16.88
2019-05-22T06:21:14.004Z,16.88
2019-05-22T06:22:13.274Z,22.50
2019-05-22T06:23:13.447Z,22.50
2019-05-22T06:24:14.502Z,16.88
2019-05-22T06:25:13.810Z,16.88
2019-05-22T06:26:13.964Z,16.88
2019-05-22T06:27:14.158Z,16.88
2019-05-22T06:28:14.305Z,22.50
2019-05-22T06:29:14.991Z,22.50
2019-05-22T06:30:14.645Z,22.50
2019-05-22T06:31:14.809Z,16.88
2019-05-22T06:32:15.000Z,16.88
2019-05-22T06:33:15.145Z,16.88
2019-05-22T06:34:15.272Z,22.50
2019-05-22T06:35:15.440Z,22.50
2019-05-22T06:36:16.499Z,22.50
2019-05-22T06:37:15.730Z,22.50
2019-05-22T06:38:15.984Z,22.50
2019-05-22T06:39:16.147Z,22.50
2019-05-22T06:40:16.506Z,22.50
2019-05-22T06:41:17.527Z,28.12
2019-05-22T06:42:16.654Z,28.12
2019-05-22T06:43:16.788Z,28.12
2019-05-22T06:44:16.928Z,28.12
2019-05-22T06:45:17.058Z,28.12
2019-05-22T06:46:17.550Z,28.12
2019-05-22T06:47:17.389Z,28.12
2019-05-22T06:48:18.495Z,28.12
2019-05-22T06:49:17.833Z,28.12
2019-05-22T06:50:18.058Z,28.12
2019-05-22T06:51:19.628Z,28.12
2019-05-22T06:52:19.355Z,28.12
2019-05-22T06:53:19.513Z,33.75
2019-05-22T06:54:18.727Z,33.75
2019-05-22T06:55:18.851Z,33.75
2019-05-22T06:56:19.001Z,33.75
2019-05-22T06:57:19.124Z,33.75
2019-05-22T06:58:19.284Z,33.75
2019-05-22T06:59:19.490Z,39.38
2019-05-22T07:00:19.662Z,39.38
2019-05-22T07:01:19.794Z,39.38
2019-05-22T07:02:19.934Z,39.38
2019-05-22T07:03:20.180Z,45.00
2019-05-22T07:04:20.306Z,50.62
2019-05-22T07:05:20.458Z,45.00
2019-05-22T07:06:20.589Z,45.00
2019-05-22T07:07:20.744Z,50.62
2019-05-22T07:08:21.533Z,50.62
2019-05-22T07:09:21.992Z,50.62
2019-05-22T07:10:21.208Z,50.62
2019-05-22T07:11:21.342Z,56.25
2019-05-22T07:12:22.009Z,56.25
2019-05-22T07:13:21.765Z,61.88
2019-05-22T07:14:21.912Z,73.12
2019-05-22T07:15:22.038Z,78.75
2019-05-22T07:16:22.158Z,78.75
2019-05-22T07:17:22.323Z,67.50
2019-05-22T07:18:22.459Z,56.25
2019-05-22T07:19:22.594Z,50.62
2019-05-22T07:20:22.760Z,50.62
2019-05-22T07:21:33.702Z,50.62
2019-05-22T07:22:25.106Z,45.00
2019-05-22T07:23:23.331Z,45.00
2019-05-22T07:24:23.469Z,50.62
2019-05-22T07:25:24.504Z,50.62
2019-05-22T07:26:23.856Z,56.25
2019-05-22T07:27:24.115Z,56.25
2019-05-22T07:28:24.236Z,56.25
2019-05-22T07:29:24.350Z,50.62
2019-05-22T07:30:25.502Z,50.62
2019-05-22T07:31:24.763Z,50.62
2019-05-22T07:32:24.900Z,50.62
2019-05-22T07:33:25.044Z,50.62
2019-05-22T07:34:25.999Z,50.62
2019-05-22T07:35:43.744Z,50.62
2019-05-22T07:36:26.508Z,50.62
2019-05-22T07:37:25.616Z,50.62
2019-05-22T07:38:25.774Z,50.62
2019-05-22T07:39:25.927Z,56.25
2019-05-22T07:40:26.042Z,50.62
2019-05-22T07:41:27.003Z,50.62
2019-05-22T07:42:26.522Z,56.25
2019-05-22T07:43:26.532Z,56.25
2019-05-22T07:44:26.650Z,56.25
2019-05-22T07:45:26.805Z,56.25
2019-05-22T07:46:30.668Z,56.25
2019-05-22T07:47:27.197Z,56.25
2019-05-22T07:48:27.351Z,61.88
2019-05-22T07:49:27.493Z,67.50
2019-05-22T07:50:27.636Z,67.50
2019-05-22T07:51:27.774Z,73.12
2019-05-22T07:52:27.931Z,73.12
2019-05-22T07:54:01.964Z,73.12
2019-05-22T07:54:29.031Z,73.12
2019-05-22T07:55:28.537Z,73.12
2019-05-22T07:56:28.678Z,73.12
2019-05-22T07:57:29.529Z,73.12
2019-05-22T07:58:29.045Z,78.75
2019-05-22T07:59:29.164Z,78.75
2019-05-22T08:00:29.299Z,73.12
2019-05-22T08:01:29.423Z,73.12
2019-05-22T08:02:29.658Z,67.50
2019-05-22T08:03:30.051Z,67.50
2019-05-22T08:04:30.045Z,67.50
2019-05-22T08:05:30.285Z,67.50
2019-05-22T08:06:30.433Z,67.50
2019-05-22T08:07:31.582Z,67.50
2019-05-22T08:08:30.760Z,67.50
2019-05-22T08:09:30.890Z,67.50
2019-05-22T08:10:32.048Z,67.50
2019-05-22T08:11:31.419Z,67.50
2019-05-22T08:12:31.312Z,67.50
2019-05-22T08:13:31.493Z,73.12
2019-05-22T08:14:32.561Z,73.12
2019-05-22T08:15:32.058Z,73.12
2019-05-22T08:16:32.552Z,78.75
2019-05-22T08:17:32.165Z,84.38
2019-05-22T08:18:32.364Z,90.00
2019-05-22T08:19:32.533Z,95.62
2019-05-22T08:20:32.688Z,95.62
2019-05-22T08:21:32.854Z,101.25
2019-05-22T08:22:33.545Z,106.88
2019-05-22T08:23:33.194Z,112.50
2019-05-22T08:24:33.340Z,112.50
2019-05-22T08:25:33.481Z,112.50
2019-05-22T08:26:34.048Z,112.50
2019-05-22T08:27:34.771Z,112.50
2019-05-22T08:28:33.900Z,106.88
2019-05-22T08:29:34.064Z,106.88
2019-05-22T08:30:34.220Z,106.88
2019-05-22T08:31:34.359Z,106.88
2019-05-22T08:32:34.498Z,95.62
2019-05-22T08:33:34.620Z,95.62
2019-05-22T08:34:34.754Z,95.62
2019-05-22T08:35:34.892Z,90.00
2019-05-22T08:36:38.626Z,90.00
2019-05-22T08:37:36.051Z,90.00
2019-05-22T08:38:35.293Z,90.00
2019-05-22T08:39:36.054Z,84.38
2019-05-22T08:40:35.601Z,84.38
2019-05-22T08:41:35.761Z,90.00
2019-05-22T08:42:35.970Z,90.00
2019-05-22T08:43:55.859Z,90.00
2019-05-22T08:44:38.289Z,84.38
2019-05-22T08:45:36.516Z,84.38
2019-05-22T08:46:36.547Z,84.38
2019-05-22T08:47:36.739Z,90.00
2019-05-22T08:48:36.903Z,95.62
2019-05-22T08:49:37.066Z,95.62
2019-05-22T08:50:39.051Z,95.62
2019-05-22T08:51:37.558Z,95.62
2019-05-22T08:52:38.551Z,101.25
2019-05-22T08:53:46.621Z,95.62
2019-05-22T08:54:40.003Z,101.25
2019-05-22T08:55:39.053Z,101.25
2019-05-22T08:56:38.435Z,106.88
2019-05-22T08:57:38.552Z,106.88
2019-05-22T08:58:38.684Z,106.88
2019-05-22T08:59:39.540Z,106.88
2019-05-22T09:00:39.020Z,106.88
2019-05-22T09:01:39.131Z,101.25
2019-05-22T09:02:39.365Z,106.88
2019-05-22T09:03:39.521Z,106.88
2019-05-22T09:04:40.546Z,112.50
2019-05-22T09:05:39.751Z,112.50
2019-05-22T09:06:40.561Z,118.12
2019-05-22T09:07:40.056Z,123.75
2019-05-22T09:08:40.621Z,118.12
2019-05-22T09:09:40.338Z,118.12
2019-05-22T09:10:40.446Z,118.12
2019-05-22T09:11:40.666Z,112.50
2019-05-22T09:12:41.551Z,118.12
2019-05-22T09:13:41.177Z,118.12
2019-05-22T09:14:41.276Z,112.50
2019-05-22T09:15:41.380Z,112.50
2019-05-22T09:16:41.499Z,106.88
2019-05-22T09:17:42.580Z,106.88
2019-05-22T09:18:41.951Z,101.25
2019-05-22T09:19:42.045Z,101.25
2019-05-22T09:20:49.393Z,95.62
2019-05-22T09:21:44.409Z,95.62
2019-05-22T09:22:42.589Z,95.62
2019-05-22T09:23:42.708Z,101.25
2019-05-22T09:24:42.962Z,106.88
2019-05-22T09:25:43.088Z,118.12
2019-05-22T09:26:43.219Z,123.75
2019-05-22T09:27:43.377Z,123.75
2019-05-22T09:28:43.521Z,118.12
2019-05-22T09:29:44.074Z,112.50
2019-05-22T09:30:43.819Z,106.88
2019-05-22T09:31:44.024Z,101.25
2019-05-22T09:32:47.501Z,95.62
2019-05-22T09:33:45.357Z,95.62
2019-05-22T09:34:44.496Z,106.88
2019-05-22T09:35:44.707Z,112.50
2019-05-22T09:36:44.848Z,123.75
2019-05-22T09:37:44.993Z,129.38
2019-05-22T09:38:46.063Z,135.00
2019-05-22T09:39:45.303Z,140.62
2019-05-22T09:40:45.575Z,140.62
2019-05-22T09:41:46.079Z,140.62
2019-05-22T09:42:45.731Z,135.00
2019-05-22T09:43:45.875Z,129.38
2019-05-22T09:44:46.050Z,118.12
2019-05-22T09:45:46.220Z,106.88
2019-05-22T09:46:47.070Z,106.88
2019-05-22T09:47:46.555Z,101.25
2019-05-22T09:48:47.587Z,95.62
2019-05-22T09:49:46.864Z,95.62
2019-05-22T09:50:47.033Z,106.88
2019-05-22T09:51:47.210Z,118.12
2019-05-22T09:52:56.870Z,123.75
2019-05-22T09:53:50.565Z,135.00
2019-05-22T09:54:48.069Z,140.62
2019-05-22T09:55:47.972Z,140.62
2019-05-22T09:56:48.129Z,146.25
2019-05-22T09:57:48.289Z,157.50
2019-05-22T09:58:49.077Z,180.00
2019-05-22T09:59:48.688Z,191.25
2019-05-22T10:00:48.850Z,196.88
2019-05-22T10:01:48.971Z,219.38
2019-05-22T10:02:49.217Z,236.25
2019-05-22T10:03:49.341Z,253.12
2019-05-22T10:04:49.470Z,292.50
2019-05-22T10:05:50.202Z,292.50
2019-05-22T10:06:49.824Z,286.88
2019-05-22T10:08:00.389Z,286.88
2019-05-22T10:08:52.077Z,286.88
2019-05-22T10:09:50.285Z,281.25
2019-05-22T10:10:50.444Z,241.88
2019-05-22T10:11:51.561Z,219.38
2019-05-22T10:12:51.590Z,202.50
2019-05-22T10:13:50.991Z,185.62
2019-05-22T10:14:51.270Z,163.12
2019-05-22T10:15:51.299Z,163.12
2019-05-22T10:16:51.441Z,157.50
2019-05-22T10:17:51.566Z,163.12
2019-05-22T10:18:53.316Z,163.12
2019-05-22T10:19:52.944Z,168.75
2019-05-22T10:20:52.075Z,225.00
2019-05-22T10:21:53.058Z,241.88
2019-05-22T10:22:52.426Z,270.00
2019-05-22T10:23:52.522Z,258.75
2019-05-22T10:24:52.658Z,275.62
2019-05-22T10:25:52.787Z,258.75
2019-05-22T10:26:53.037Z,258.75
2019-05-22T10:27:53.150Z,258.75
2019-05-22T10:28:53.301Z,241.88
2019-05-22T10:29:54.061Z,236.25
2019-05-22T10:30:55.438Z,230.62
2019-05-22T10:31:53.831Z,225.00
2019-05-22T10:32:53.976Z,264.38
2019-05-22T10:33:54.122Z,258.75
2019-05-22T10:34:57.635Z,241.88
2019-05-22T10:35:54.449Z,241.88
2019-05-22T10:36:54.610Z,236.25
2019-05-22T10:37:54.757Z,225.00
2019-05-22T10:38:54.904Z,219.38
2019-05-22T10:39:55.581Z,219.38
2019-05-22T10:40:58.887Z,202.50
2019-05-22T10:41:56.403Z,185.62
2019-05-22T10:42:55.640Z,180.00
2019-05-22T10:43:55.820Z,174.38
2019-05-22T10:44:55.974Z,174.38
2019-05-22T10:45:56.135Z,185.62
2019-05-22T10:46:57.093Z,191.25
2019-05-22T10:47:56.442Z,219.38
2019-05-22T10:48:57.569Z,213.75
2019-05-22T10:49:56.806Z,230.62
2019-05-22T10:50:57.001Z,230.62
2019-05-22T10:51:58.081Z,270.00
2019-05-22T10:52:57.311Z,230.62
2019-05-22T10:53:58.065Z,331.88
2019-05-22T10:54:57.724Z,253.12
2019-05-22T10:55:57.902Z,315.00
2019-05-22T10:56:58.581Z,225.00
2019-05-22T10:57:59.064Z,219.38
2019-05-22T10:59:01.577Z,213.75
2019-05-22T10:59:59.534Z,208.12
2019-05-22T11:00:58.776Z,202.50
2019-05-22T11:01:58.918Z,202.50
2019-05-22T11:02:59.053Z,225.00
2019-05-22T11:03:59.200Z,213.75
2019-05-22T11:04:59.319Z,292.50
2019-05-22T11:06:07.288Z,303.75
2019-05-22T11:07:01.650Z,213.75
2019-05-22T11:07:59.853Z,219.38
2019-05-22T11:08:59.958Z,225.00
2019-05-22T11:10:00.115Z,213.75
2019-05-22T11:11:00.333Z,213.75
2019-05-22T11:12:00.476Z,208.12
2019-05-22T11:13:01.107Z,292.50
2019-05-22T11:14:02.129Z,315.00
2019-05-22T11:15:01.901Z,219.38
2019-05-22T11:16:01.156Z,213.75
2019-05-22T11:17:01.627Z,213.75
2019-05-22T11:18:02.477Z,236.25
2019-05-22T11:19:01.672Z,208.12
2019-05-22T11:20:01.826Z,230.62
2019-05-22T11:21:02.006Z,202.50
2019-05-22T11:22:03.089Z,225.00
2019-05-22T11:23:02.494Z,286.88
2019-05-22T11:24:02.513Z,286.88
2019-05-22T11:25:02.724Z,275.62
2019-05-22T11:26:02.893Z,292.50
2019-05-22T11:27:03.089Z,191.25
2019-05-22T11:28:03.234Z,191.25
2019-05-22T11:29:04.365Z,196.88
2019-05-22T11:30:04.082Z,225.00
2019-05-22T11:31:03.690Z,236.25
2019-05-22T11:32:03.923Z,225.00
2019-05-22T11:33:04.061Z,264.38
2019-05-22T11:34:04.238Z,315.00
2019-05-22T11:35:04.395Z,286.88
2019-05-22T11:36:05.093Z,196.88
2019-05-22T11:37:04.745Z,196.88
2019-05-22T11:38:04.898Z,191.25
2019-05-22T11:39:05.062Z,202.50
2019-05-22T11:40:05.223Z,309.38
2019-05-22T11:41:06.078Z,309.38
2019-05-22T11:42:05.598Z,298.12
2019-05-22T11:43:05.735Z,303.75
2019-05-22T11:44:05.877Z,315.00
2019-05-22T11:45:06.044Z,219.38
2019-05-22T11:46:06.177Z,320.62
2019-05-22T11:47:06.308Z,309.38
2019-05-22T11:48:06.497Z,185.62
2019-05-22T11:49:06.649Z,185.62
2019-05-22T11:50:06.920Z,309.38
2019-05-22T11:51:07.012Z,258.75
2019-05-22T11:52:07.151Z,303.75
2019-05-22T11:53:07.618Z,303.75
2019-05-22T11:54:09.795Z,264.38
2019-05-22T11:55:08.673Z,298.12
2019-05-22T11:56:07.821Z,292.50
2019-05-22T11:57:07.959Z,292.50
2019-05-22T11:58:08.178Z,292.50
2019-05-22T11:59:08.311Z,292.50
2019-05-22T12:00:09.345Z,292.50
2019-05-22T12:01:09.632Z,315.00
2019-05-22T12:02:09.614Z,168.75
2019-05-22T12:03:09.976Z,168.75
2019-05-22T12:04:09.212Z,157.50
2019-05-22T12:05:09.346Z,163.12
2019-05-22T12:06:09.516Z,174.38
2019-05-22T12:07:09.666Z,315.00
2019-05-22T12:08:10.122Z,326.25
2019-05-22T12:09:10.078Z,258.75
2019-05-22T12:10:10.214Z,320.62
2019-05-22T12:11:11.116Z,326.25
2019-05-22T12:12:11.110Z,180.00
2019-05-22T12:13:12.172Z,168.75
2019-05-22T12:14:10.927Z,163.12
2019-05-22T12:15:11.124Z,168.75
2019-05-22T12:16:11.245Z,185.62
2019-05-22T12:17:11.404Z,168.75
2019-05-22T12:18:12.097Z,180.00
2019-05-22T12:19:11.722Z,180.00
2019-05-22T12:20:11.867Z,191.25
2019-05-22T12:21:12.008Z,191.25
2019-05-22T12:22:12.609Z,213.75
2019-05-22T12:23:12.350Z,185.62
2019-05-22T12:24:26.209Z,174.38
2019-05-22T12:25:14.128Z,168.75
2019-05-22T12:26:13.622Z,180.00
2019-05-22T12:27:12.989Z,196.88
2019-05-22T12:28:13.125Z,343.12
2019-05-22T12:29:16.853Z,343.12
2019-05-22T12:30:14.170Z,180.00
2019-05-22T12:31:14.732Z,168.75
2019-05-22T12:32:13.866Z,157.50
2019-05-22T12:33:14.473Z,151.88
2019-05-22T12:34:49.869Z,151.88
2019-05-22T12:35:14.408Z,168.75
2019-05-22T12:36:14.532Z,180.00
2019-05-22T12:37:15.622Z,151.88
2019-05-22T12:38:14.884Z,157.50
2019-05-22T12:39:15.041Z,163.12
2019-05-22T12:40:15.189Z,247.50
2019-05-22T12:41:15.347Z,174.38
2019-05-22T12:42:15.475Z,157.50
2019-05-22T12:43:15.615Z,157.50
2019-05-22T12:44:15.761Z,146.25
2019-05-22T12:45:15.953Z,135.00
2019-05-22T12:46:16.116Z,123.75
2019-05-22T12:47:16.278Z,123.75
2019-05-22T12:48:16.435Z,123.75
2019-05-22T12:49:16.582Z,129.38
2019-05-22T12:50:17.147Z,208.12
2019-05-22T12:51:16.906Z,191.25
2019-05-22T12:52:17.068Z,146.25
2019-05-22T12:53:17.207Z,151.88
2019-05-22T12:54:17.388Z,163.12
2019-05-22T12:55:17.634Z,168.75
2019-05-22T12:56:17.689Z,320.62
2019-05-22T12:57:17.857Z,185.62